createdAt,value
2019-05-23T00:00:52.712Z,83.40
2019-05-23T00:03:52.380Z,83.50
2019-05-23T00:06:40.042Z,82.30
2019-05-23T00:09:25.212Z,81.70
2019-05-23T00:11:59.884Z,81.70
2019-05-23T00:14:43.951Z,81.20
2019-05-23T00:17:15.167Z,81.10
2019-05-23T00:19:43.749Z,80.90
2019-05-23T00:22:11.063Z,80.90
2019-05-23T00:24:39.803Z,81.00
2019-05-23T00:27:06.611Z,80.90
2019-05-23T00:29:34.025Z,80.70
2019-05-23T00:32:02.640Z,80.80
2019-05-23T00:34:30.919Z,81.10
2019-05-23T00:36:59.134Z,81.40
2019-05-23T00:39:26.939Z,81.20
2019-05-23T00:41:53.801Z,81.00
2019-05-23T00:44:20.620Z,80.50
2019-05-23T00:46:48.430Z,80.60
2019-05-23T00:49:15.724Z,81.00
2019-05-23T00:51:43.025Z,80.80
2019-05-23T00:54:10.471Z,81.10
2019-05-23T00:56:38.277Z,81.20
2019-05-23T00:59:05.476Z,81.20
2019-05-23T01:01:33.711Z,81.50
2019-05-23T01:04:00.889Z,81.30
2019-05-23T01:06:28.941Z,81.30
2019-05-23T01:08:56.579Z,81.40
2019-05-23T01:11:24.829Z,81.00
2019-05-23T01:13:52.251Z,81.20
2019-05-23T01:16:21.551Z,80.80
2019-05-23T01:18:49.031Z,80.80
2019-05-23T01:21:17.410Z,80.80
2019-05-23T01:23:47.245Z,81.00
2019-05-23T01:26:15.053Z,81.00
2019-05-23T01:28:42.782Z,81.20
2019-05-23T01:31:37.102Z,81.20
2019-05-23T01:34:05.097Z,81.10
2019-05-23T01:36:33.180Z,81.50
2019-05-23T01:39:01.268Z,81.20
2019-05-23T01:41:30.005Z,80.90
2019-05-23T01:43:57.978Z,81.00
2019-05-23T01:46:25.464Z,80.90
2019-05-23T01:48:52.390Z,80.90
2019-05-23T01:51:20.896Z,80.90
2019-05-23T01:53:47.553Z,81.10
2019-05-23T01:56:14.718Z,81.30
2019-05-23T01:58:41.968Z,81.40
2019-05-23T02:01:09.589Z,81.40
2019-05-23T02:03:37.553Z,81.40
2019-05-23T02:06:04.824Z,81.70
2019-05-23T02:08:31.418Z,81.80
2019-05-23T02:10:58.188Z,81.70
2019-05-23T02:13:26.567Z,81.50
2019-05-23T02:15:54.293Z,81.90
2019-05-23T02:18:23.244Z,82.00
2019-05-23T02:20:50.404Z,82.50
2019-05-23T02:23:17.517Z,82.30
2019-05-23T02:25:45.345Z,82.40
2019-05-23T02:28:13.453Z,82.50
2019-05-23T02:30:40.196Z,82.60
2019-05-23T02:33:09.810Z,82.40
2019-05-23T02:35:37.306Z,82.60
2019-05-23T02:38:08.936Z,82.60
2019-05-23T02:40:52.532Z,82.40
2019-05-23T02:43:21.112Z,82.40
2019-05-23T02:45:51.050Z,82.20
2019-05-23T02:48:19.555Z,82.50
2019-05-23T02:51:06.596Z,82.60
2019-05-23T02:53:34.943Z,82.60
2019-05-23T02:56:08.672Z,82.50
2019-05-23T02:58:48.905Z,82.30
2019-05-23T03:01:27.099Z,82.40
2019-05-23T03:03:56.337Z,82.70
2019-05-23T03:06:24.511Z,82.70
2019-05-23T03:08:51.907Z,82.80
2019-05-23T03:11:28.354Z,82.70
2019-05-23T03:13:57.292Z,82.70
2019-05-23T03:16:25.672Z,82.50
2019-05-23T03:18:57.821Z,82.80
2019-05-23T03:21:25.181Z,82.90
2019-05-23T03:23:52.275Z,82.90
2019-05-23T03:26:39.358Z,83.10
2019-05-23T03:29:07.808Z,83.30
2019-05-23T03:31:36.387Z,83.30
2019-05-23T03:34:04.887Z,83.40
2019-05-23T03:36:33.460Z,83.30
2019-05-23T03:39:01.694Z,83.30
2019-05-23T03:41:30.685Z,83.30
2019-05-23T03:43:58.665Z,83.20
2019-05-23T03:46:27.634Z,83.20
2019-05-23T03:48:55.882Z,83.30
2019-05-23T03:51:23.310Z,83.10
2019-05-23T03:53:51.724Z,83.10
2019-05-23T03:56:19.109Z,83.20
2019-05-23T03:58:47.481Z,82.90
2019-05-23T04:01:17.640Z,83.00
2019-05-23T04:03:44.430Z,82.70
2019-05-23T04:06:12.305Z,82.40
2019-05-23T04:08:39.017Z,82.20
2019-05-23T04:11:05.693Z,82.10
2019-05-23T04:13:32.397Z,82.10
2019-05-23T04:16:00.004Z,82.50
2019-05-23T04:18:26.797Z,82.50
2019-05-23T04:20:53.796Z,82.90
2019-05-23T04:23:21.212Z,82.90
2019-05-23T04:25:48.454Z,82.70
2019-05-23T04:28:24.552Z,82.50
2019-05-23T04:30:53.517Z,83.30
2019-05-23T04:33:20.292Z,82.30
2019-05-23T04:35:47.764Z,82.40
2019-05-23T04:38:15.545Z,82.60
2019-05-23T04:40:42.406Z,82.70
2019-05-23T04:43:08.889Z,82.40
2019-05-23T04:45:35.991Z,82.30
2019-05-23T04:48:04.314Z,82.10
2019-05-23T04:50:31.780Z,82.30
2019-05-23T04:52:59.162Z,82.90
2019-05-23T04:55:26.676Z,83.10
2019-05-23T04:57:53.642Z,83.30
2019-05-23T05:00:20.887Z,83.40
2019-05-23T05:02:47.647Z,83.60
2019-05-23T05:05:15.370Z,83.60
2019-05-23T05:07:42.643Z,83.70
2019-05-23T05:10:12.039Z,83.50
2019-05-23T05:12:38.683Z,83.80
2019-05-23T05:15:05.641Z,84.10
2019-05-23T05:17:34.150Z,83.90
2019-05-23T05:20:00.762Z,84.00
2019-05-23T05:22:27.509Z,84.20
2019-05-23T05:24:54.232Z,84.20
2019-05-23T05:27:21.177Z,84.40
2019-05-23T05:29:48.378Z,83.90
2019-05-23T05:32:15.634Z,84.40
2019-05-23T05:34:42.728Z,84.40
2019-05-23T05:37:12.743Z,84.40
2019-05-23T05:39:39.426Z,84.40
2019-05-23T05:42:08.732Z,84.10
2019-05-23T05:44:37.734Z,83.70
2019-05-23T05:47:04.587Z,83.50
2019-05-23T05:49:33.273Z,83.60
2019-05-23T05:51:59.948Z,83.70
2019-05-23T05:54:26.581Z,83.20
2019-05-23T05:56:53.037Z,82.70
2019-05-23T05:59:19.542Z,82.60
2019-05-23T06:01:49.949Z,81.90
2019-05-23T06:04:18.291Z,81.20
2019-05-23T06:07:01.843Z,80.20
2019-05-23T06:09:34.125Z,79.80
2019-05-23T06:12:02.357Z,79.50
2019-05-23T06:14:31.077Z,79.40
2019-05-23T06:16:57.658Z,79.30
2019-05-23T06:19:27.279Z,79.60
2019-05-23T06:21:53.925Z,79.20
2019-05-23T06:24:39.304Z,79.10
2019-05-23T06:26:49.033Z,80.10
2019-05-23T06:29:15.835Z,80.20
2019-05-23T06:31:42.680Z,80.30
2019-05-23T06:34:11.024Z,80.10
2019-05-23T06:36:37.935Z,80.80
2019-05-23T06:39:07.572Z,81.20
2019-05-23T06:41:34.230Z,81.00
2019-05-23T06:44:01.508Z,80.60
2019-05-23T06:46:28.393Z,81.40
2019-05-23T06:48:55.144Z,81.60
2019-05-23T06:51:22.579Z,81.50
2019-05-23T06:53:49.781Z,80.60
2019-05-23T06:56:16.910Z,80.70
2019-05-23T06:58:43.485Z,80.70
2019-05-23T07:01:10.013Z,81.20
2019-05-23T07:03:42.640Z,81.00
2019-05-23T07:06:06.315Z,80.40
2019-05-23T07:08:32.934Z,80.20
2019-05-23T07:10:59.774Z,80.10
2019-05-23T07:13:29.150Z,80.60
2019-05-23T07:15:55.672Z,79.60
2019-05-23T07:18:22.350Z,79.30
2019-05-23T07:20:48.961Z,80.30
2019-05-23T07:23:15.966Z,80.30
2019-05-23T07:25:43.025Z,80.10
2019-05-23T07:28:09.811Z,80.00
2019-05-23T07:30:36.483Z,80.30
2019-05-23T07:33:03.774Z,80.00
2019-05-23T07:35:30.479Z,78.90
2019-05-23T07:37:57.087Z,79.60
2019-05-23T07:40:25.450Z,79.40
2019-05-23T07:42:52.161Z,80.00
2019-05-23T07:45:22.026Z,79.30
2019-05-23T07:47:48.628Z,80.40
2019-05-23T07:50:15.401Z,80.10
2019-05-23T07:52:42.908Z,79.70
2019-05-23T07:55:28.658Z,79.50
2019-05-23T07:57:56.759Z,79.90
2019-05-23T08:00:27.837Z,79.40
2019-05-23T08:02:58.837Z,78.30
2019-05-23T08:05:26.322Z,78.40
2019-05-23T08:07:53.581Z,79.10
2019-05-23T08:10:33.275Z,80.20
2019-05-23T08:12:49.205Z,79.30
2019-05-23T08:15:17.062Z,79.30
2019-05-23T08:17:44.011Z,79.30
2019-05-23T08:20:11.668Z,79.80
2019-05-23T08:22:38.101Z,79.50
2019-05-23T08:25:04.747Z,78.30
2019-05-23T08:27:33.378Z,77.40
2019-05-23T08:30:02.343Z,77.30
2019-05-23T08:32:29.521Z,77.70
2019-05-23T08:34:56.089Z,77.20
2019-05-23T08:37:23.542Z,77.70
2019-05-23T08:39:50.939Z,77.80
2019-05-23T08:42:18.175Z,78.00
2019-05-23T08:44:45.077Z,78.70
2019-05-23T08:47:12.754Z,77.90
2019-05-23T08:49:41.183Z,77.60
2019-05-23T08:52:07.789Z,76.50
2019-05-23T08:54:34.807Z,76.90
2019-05-23T08:57:01.790Z,78.00
2019-05-23T08:59:29.443Z,79.50
2019-05-23T09:01:55.955Z,79.20
2019-05-23T09:04:23.135Z,79.10
2019-05-23T09:06:50.708Z,78.90
2019-05-23T09:09:28.930Z,78.60
2019-05-23T09:11:46.680Z,77.60
2019-05-23T09:14:13.408Z,76.70
2019-05-23T09:16:40.422Z,76.70
2019-05-23T09:19:07.278Z,77.60
2019-05-23T09:21:33.846Z,76.30
2019-05-23T09:24:00.485Z,76.60
2019-05-23T09:26:27.057Z,75.00
2019-05-23T09:28:53.703Z,75.10
2019-05-23T09:31:21.404Z,74.10
2019-05-23T09:33:47.779Z,73.10
2019-05-23T09:36:14.880Z,72.40
2019-05-23T09:38:41.415Z,71.80
2019-05-23T09:41:08.108Z,71.00
2019-05-23T09:43:35.848Z,71.00
2019-05-23T09:46:02.738Z,70.50
2019-05-23T09:48:30.156Z,70.60
2019-05-23T09:50:57.320Z,70.90
2019-05-23T09:53:24.350Z,71.00
2019-05-23T09:55:51.396Z,73.00
2019-05-23T09:58:18.125Z,72.90
2019-05-23T10:00:44.842Z,69.10
2019-05-23T10:03:11.807Z,69.80
2019-05-23T10:05:43.176Z,68.60
2019-05-23T10:08:07.953Z,69.30
2019-05-23T10:10:35.526Z,69.80
2019-05-23T10:13:02.222Z,69.20
2019-05-23T10:18:14.243Z,69.70
2019-05-23T10:20:41.625Z,68.90
2019-05-23T10:23:08.133Z,67.00
2019-05-23T10:25:34.657Z,68.10
2019-05-23T10:28:01.198Z,67.90
2019-05-23T10:30:28.122Z,66.10
2019-05-23T10:32:54.756Z,67.30
2019-05-23T10:35:21.726Z,67.40
2019-05-23T10:37:48.145Z,67.50
2019-05-23T10:40:15.520Z,66.70
2019-05-23T10:42:42.265Z,70.00
2019-05-23T10:45:09.467Z,67.80
2019-05-23T10:47:36.179Z,68.40
2019-05-23T10:50:08.151Z,67.20
2019-05-23T10:52:34.165Z,68.70
2019-05-23T10:55:00.912Z,68.90
2019-05-23T10:57:27.407Z,67.40
2019-05-23T10:59:53.933Z,66.40
2019-05-23T11:02:20.465Z,67.70
2019-05-23T11:04:49.052Z,68.80
2019-05-23T11:07:17.106Z,67.00
2019-05-23T11:09:44.236Z,65.60
2019-05-23T11:12:10.761Z,66.10
2019-05-23T11:14:37.849Z,65.20
2019-05-23T11:17:05.754Z,67.70
2019-05-23T11:19:32.426Z,63.20
2019-05-23T11:21:59.074Z,63.70
2019-05-23T11:24:25.599Z,64.90
2019-05-23T11:26:52.355Z,64.80
2019-05-23T11:29:18.952Z,63.20
2019-05-23T11:31:45.600Z,63.00
2019-05-23T11:34:12.111Z,65.00
2019-05-23T11:36:39.267Z,64.30
2019-05-23T11:39:07.487Z,66.10
2019-05-23T11:41:34.697Z,65.70
2019-05-23T11:44:02.584Z,64.40
2019-05-23T11:46:31.534Z,64.90
2019-05-23T11:48:59.019Z,65.80
2019-05-23T11:51:26.320Z,64.50
2019-05-23T11:54:06.622Z,65.50
2019-05-23T11:56:21.683Z,67.00
2019-05-23T11:58:48.632Z,67.10
2019-05-23T12:01:29.280Z,66.60
2019-05-23T12:03:57.832Z,65.90
2019-05-23T12:06:26.911Z,64.90
2019-05-23T12:08:54.154Z,63.50
2019-05-23T12:11:21.661Z,64.10
2019-05-23T12:13:48.133Z,64.00
2019-05-23T12:16:14.940Z,64.10
2019-05-23T12:18:41.824Z,63.80
2019-05-23T12:21:08.326Z,64.50
2019-05-23T12:23:34.969Z,66.90
2019-05-23T12:26:01.631Z,66.20
2019-05-23T12:28:28.363Z,64.50
2019-05-23T12:30:55.470Z,64.40
2019-05-23T12:33:22.055Z,62.90
2019-05-23T12:35:48.702Z,60.50
2019-05-23T12:38:15.734Z,61.90
2019-05-23T12:40:42.601Z,62.90
2019-05-23T12:43:09.177Z,63.80
2019-05-23T12:45:35.670Z,64.40
2019-05-23T12:48:21.043Z,65.40
2019-05-23T12:50:53.806Z,66.70
2019-05-23T12:53:17.694Z,64.70
2019-05-23T12:55:44.459Z,64.70
2019-05-23T12:58:11.215Z,63.40
2019-05-23T13:00:39.773Z,61.90
2019-05-23T13:03:07.213Z,63.30
2019-05-23T13:05:35.763Z,64.60
2019-05-23T13:08:06.062Z,62.30
2019-05-23T13:10:32.143Z,62.70
2019-05-23T13:12:59.603Z,63.20
2019-05-23T13:15:27.038Z,63.70
2019-05-23T13:17:53.777Z,64.40
2019-05-23T13:20:20.820Z,62.20
2019-05-23T13:22:48.514Z,61.80
2019-05-23T13:25:15.656Z,63.10
2019-05-23T13:27:42.392Z,64.30
2019-05-23T13:30:09.867Z,63.60
2019-05-23T13:32:36.598Z,63.70
2019-05-23T13:35:05.891Z,64.70
2019-05-23T13:37:32.724Z,64.10
2019-05-23T13:39:59.254Z,64.00
2019-05-23T13:42:27.140Z,63.20
2019-05-23T13:44:54.023Z,62.00
2019-05-23T13:47:20.901Z,60.90
2019-05-23T13:49:47.617Z,61.50
2019-05-23T13:52:14.217Z,62.70
2019-05-23T13:54:40.929Z,62.40
2019-05-23T13:57:09.158Z,62.00
2019-05-23T13:59:36.849Z,63.00
2019-05-23T14:02:05.406Z,62.60
2019-05-23T14:04:31.981Z,61.30
2019-05-23T14:06:58.530Z,61.30
2019-05-23T14:09:26.148Z,61.90
2019-05-23T14:12:19.495Z,64.10
2019-05-23T14:14:21.131Z,63.70
2019-05-23T14:16:49.803Z,64.40
2019-05-23T14:19:16.474Z,64.90
2019-05-23T14:21:43.345Z,65.20
2019-05-23T14:24:09.919Z,65.30
2019-05-23T14:26:44.386Z,64.70
2019-05-23T14:29:11.011Z,64.40
2019-05-23T14:31:39.428Z,64.00
2019-05-23T14:34:07.824Z,61.90
2019-05-23T14:36:36.263Z,63.10
2019-05-23T14:39:07.549Z,61.00
2019-05-23T14:41:45.297Z,61.60
2019-05-23T14:44:07.039Z,62.90
2019-05-23T14:46:35.447Z,61.80
2019-05-23T14:49:12.910Z,61.20
2019-05-23T14:51:41.508Z,59.90
2019-05-23T14:54:28.110Z,60.20
2019-05-23T14:56:55.119Z,61.10
2019-05-23T14:59:22.803Z,60.90
2019-05-23T15:01:49.944Z,61.10
2019-05-23T15:04:17.184Z,61.70
2019-05-23T15:06:44.015Z,61.30
2019-05-23T15:09:10.645Z,61.00
2019-05-23T15:11:37.994Z,60.90
2019-05-23T15:14:04.535Z,59.90
2019-05-23T15:16:31.216Z,61.00
2019-05-23T15:18:58.467Z,61.50
2019-05-23T15:21:25.151Z,63.20
2019-05-23T15:23:51.929Z,63.30
2019-05-23T15:26:23.134Z,62.50
2019-05-23T15:28:47.955Z,63.20
2019-05-23T15:31:14.630Z,62.00
2019-05-23T15:33:41.336Z,61.20
2019-05-23T15:36:08.010Z,58.80
2019-05-23T15:38:34.653Z,58.40
2019-05-23T15:41:01.535Z,58.10
2019-05-23T15:43:28.078Z,58.80
2019-05-23T15:45:54.727Z,59.40
2019-05-23T15:48:21.272Z,60.60
2019-05-23T15:50:49.830Z,59.50
2019-05-23T15:53:35.491Z,59.00
2019-05-23T15:56:25.895Z,58.80
2019-05-23T15:58:39.552Z,57.90
2019-05-23T16:01:10.666Z,58.20
2019-05-23T16:03:39.391Z,57.60
2019-05-23T16:06:07.779Z,57.80
2019-05-23T16:08:35.288Z,57.50
2019-05-23T16:11:02.506Z,56.90
2019-05-23T16:13:29.016Z,57.00
2019-05-23T16:15:55.682Z,57.40
2019-05-23T16:18:22.924Z,58.50
2019-05-23T16:20:49.346Z,59.70
2019-05-23T16:23:15.712Z,59.50
2019-05-23T16:25:42.249Z,61.20
2019-05-23T16:28:08.879Z,61.10
2019-05-23T16:30:35.576Z,61.60
2019-05-23T16:33:02.344Z,62.00
2019-05-23T16:35:29.155Z,61.60
2019-05-23T16:37:55.975Z,60.70
2019-05-23T16:40:22.736Z,60.50
2019-05-23T16:42:49.253Z,60.10
2019-05-23T16:45:16.074Z,59.80
2019-05-23T16:47:42.543Z,59.60
2019-05-23T16:50:09.474Z,59.40
2019-05-23T16:52:36.279Z,59.10
2019-05-23T16:55:06.735Z,59.10
2019-05-23T16:57:51.325Z,58.90
2019-05-23T17:00:26.317Z,58.70
2019-05-23T17:03:13.272Z,58.20
2019-05-23T17:05:53.496Z,58.00
2019-05-23T17:08:33.965Z,58.90
2019-05-23T17:13:53.316Z,59.00
2019-05-23T17:16:27.579Z,58.90
2019-05-23T17:19:08.667Z,58.50
2019-05-23T17:21:37.197Z,58.40
2019-05-23T17:24:08.336Z,57.50
2019-05-23T17:26:53.595Z,57.60
2019-05-23T17:29:31.221Z,57.50
2019-05-23T17:31:59.814Z,57.60
2019-05-23T17:34:26.205Z,56.60
2019-05-23T17:36:52.798Z,57.40
2019-05-23T17:39:20.159Z,57.40
2019-05-23T17:41:46.837Z,58.40
2019-05-23T17:44:13.404Z,58.70
2019-05-23T17:46:40.269Z,58.50
2019-05-23T17:49:06.857Z,58.80
2019-05-23T17:51:33.625Z,59.50
2019-05-23T17:54:00.282Z,59.60
2019-05-23T17:56:27.037Z,60.00
2019-05-23T17:58:53.789Z,59.40
2019-05-23T18:01:23.619Z,58.70
2019-05-23T18:03:50.363Z,59.40
2019-05-23T18:06:16.846Z,58.40
2019-05-23T18:08:44.041Z,58.50
2019-05-23T18:11:10.762Z,59.60
2019-05-23T18:13:37.306Z,59.50
2019-05-23T18:16:04.244Z,60.10
2019-05-23T18:18:31.678Z,62.00
2019-05-23T18:20:59.264Z,64.90
2019-05-23T18:23:26.337Z,67.10
2019-05-23T18:25:52.826Z,68.20
2019-05-23T18:28:19.540Z,68.80
2019-05-23T18:30:54.328Z,69.50
2019-05-23T18:33:23.095Z,70.20
2019-05-23T18:35:51.293Z,70.40
2019-05-23T18:38:18.410Z,70.70
2019-05-23T18:41:01.592Z,71.30
2019-05-23T18:43:14.859Z,72.00
2019-05-23T18:45:43.265Z,72.60
2019-05-23T18:48:10.983Z,72.80
2019-05-23T18:50:38.154Z,72.90
2019-05-23T18:53:06.315Z,72.90
2019-05-23T18:55:33.677Z,73.20
2019-05-23T18:58:00.443Z,73.30
2019-05-23T19:00:50.793Z,73.50
2019-05-23T19:03:17.471Z,73.30
2019-05-23T19:05:46.466Z,73.50
2019-05-23T19:08:13.983Z,74.10
2019-05-23T19:10:41.169Z,73.90
2019-05-23T19:13:07.747Z,73.80
2019-05-23T19:15:34.538Z,73.50
2019-05-23T19:18:01.095Z,73.70
2019-05-23T19:20:28.408Z,73.90
2019-05-23T19:22:55.380Z,73.70
2019-05-23T19:25:23.467Z,73.80
2019-05-23T19:27:50.111Z,73.40
2019-05-23T19:30:17.415Z,73.20
2019-05-23T19:32:44.392Z,73.40
2019-05-23T19:35:11.342Z,73.30
2019-05-23T19:37:39.221Z,73.00
2019-05-23T19:40:06.045Z,73.20
2019-05-23T19:42:32.804Z,73.10
2019-05-23T19:44:59.327Z,73.60
2019-05-23T19:47:27.153Z,73.60
2019-05-23T19:49:53.696Z,73.60
2019-05-23T19:52:20.534Z,73.40
2019-05-23T19:54:47.119Z,73.10
2019-05-23T19:57:15.439Z,73.00
2019-05-23T19:59:42.472Z,72.90
2019-05-23T20:02:17.436Z,72.80
2019-05-23T20:04:51.569Z,72.90
2019-05-23T20:07:18.779Z,72.60
2019-05-23T20:09:45.633Z,72.40
2019-05-23T20:12:14.452Z,72.30
2019-05-23T20:14:41.230Z,72.70
2019-05-23T20:17:08.196Z,72.80
2019-05-23T20:19:34.879Z,72.60
2019-05-23T20:22:01.787Z,73.20
2019-05-23T20:24:28.216Z,72.60
2019-05-23T20:26:54.853Z,72.90
2019-05-23T20:29:21.738Z,72.90
2019-05-23T20:31:48.734Z,73.20
2019-05-23T20:34:15.618Z,73.40
2019-05-23T20:36:42.372Z,73.50
2019-05-23T20:39:10.355Z,73.30
2019-05-23T20:41:38.875Z,73.50
2019-05-23T20:44:06.232Z,73.60
2019-05-23T20:46:33.175Z,73.60
2019-05-23T20:48:59.804Z,73.80
2019-05-23T20:51:26.536Z,73.90
2019-05-23T20:53:53.142Z,73.80
2019-05-23T20:56:19.783Z,73.80
2019-05-23T20:58:46.457Z,73.90
2019-05-23T21:01:20.804Z,74.00
2019-05-23T21:03:48.228Z,74.00
2019-05-23T21:06:14.853Z,73.90
2019-05-23T21:08:42.686Z,74.00
2019-05-23T21:11:09.373Z,74.10
2019-05-23T21:13:36.071Z,74.10
2019-05-23T21:16:03.367Z,74.10
2019-05-23T21:18:30.136Z,74.10
2019-05-23T21:20:56.688Z,74.00
2019-05-23T21:23:24.551Z,74.10
2019-05-23T21:25:55.740Z,74.10
2019-05-23T21:28:22.412Z,74.40
2019-05-23T21:30:49.454Z,74.10
2019-05-23T21:33:15.991Z,74.40
2019-05-23T21:35:42.484Z,74.40
2019-05-23T21:38:09.167Z,74.40
2019-05-23T21:40:39.336Z,74.30
2019-05-23T21:43:06.016Z,74.30
2019-05-23T21:45:32.952Z,74.30
2019-05-23T21:47:59.626Z,74.40
2019-05-23T21:50:27.457Z,74.50
2019-05-23T21:52:54.383Z,74.50
2019-05-23T21:55:37.751Z,75.50
2019-05-23T21:58:06.708Z,74.60
2019-05-23T22:01:06.144Z,74.80
2019-05-23T22:03:37.004Z,75.00
2019-05-23T22:06:08.052Z,74.90
2019-05-23T22:08:35.668Z,75.00
2019-05-23T22:11:02.721Z,74.90
2019-05-23T22:13:29.363Z,75.10
2019-05-23T22:15:57.994Z,75.00
2019-05-23T22:18:26.856Z,75.00
2019-05-23T22:20:54.184Z,75.00
2019-05-23T22:23:21.432Z,75.00
2019-05-23T22:25:48.097Z,75.00
2019-05-23T22:28:15.089Z,75.10
2019-05-23T22:30:42.105Z,75.10
2019-05-23T22:33:09.021Z,75.30
2019-05-23T22:35:35.933Z,75.40
2019-05-23T22:38:02.582Z,75.50
2019-05-23T22:40:29.160Z,75.50
2019-05-23T22:42:56.603Z,75.30
2019-05-23T22:45:25.214Z,75.70
2019-05-23T22:48:11.533Z,75.80
2019-05-23T22:50:38.177Z,75.50
2019-05-23T22:53:04.697Z,75.90
2019-05-23T22:55:32.362Z,75.70
2019-05-23T22:57:59.074Z,75.90
2019-05-23T23:00:33.544Z,76.20
2019-05-23T23:03:00.566Z,76.20
2019-05-23T23:05:27.067Z,75.90
2019-05-23T23:07:54.479Z,75.70
2019-05-23T23:10:21.361Z,75.50
2019-05-23T23:12:47.998Z,75.50
2019-05-23T23:15:14.777Z,75.80
2019-05-23T23:17:41.174Z,76.20
2019-05-23T23:20:07.869Z,76.40
2019-05-23T23:22:35.275Z,76.10
2019-05-23T23:25:02.023Z,76.20
2019-05-23T23:27:28.736Z,76.40
2019-05-23T23:29:56.611Z,77.00
2019-05-23T23:32:23.258Z,77.50
2019-05-23T23:34:49.824Z,77.60
2019-05-23T23:37:16.456Z,77.70
2019-05-23T23:39:43.008Z,77.50
2019-05-23T23:42:10.795Z,77.50
2019-05-23T23:44:37.126Z,77.10
2019-05-23T23:47:23.206Z,76.80
2019-05-23T23:50:09.521Z,77.20
2019-05-23T23:52:54.533Z,77.50
2019-05-23T23:55:39.597Z,77.40
2019-05-23T23:58:06.051Z,77.50
